Time;durP1;ratioP1;P1;durP2;ratioP2;P2;SDS_P1;SDS_P2;PMS_P1;PMS_P2;Temp;Humidity;BMP_temperature;BMP_pressure;BME280_temperature;BME280_humidity;BME280_pressure;Samples;Min_cycle;Max_cycle;Signal;HPM_P1;HPM_P2
2023/02/20 00:00:40;;;;;;;12.40;8.23;;;5.90;99.90;;;;;;5018500;28;20040;-75
2023/02/20 00:03:06;;;;;;;17.13;8.57;;;5.90;99.90;;;;;;5021869;28;20056;-75
2023/02/20 00:05:33;;;;;;;15.88;8.90;;;5.90;99.90;;;;;;5022552;28;20049;-76
2023/02/20 00:07:58;;;;;;;11.60;8.20;;;6.00;99.90;;;;;;5019345;28;20045;-75
2023/02/20 00:10:24;;;;;;;12.52;8.45;;;6.00;99.90;;;;;;5029301;28;20041;-76
2023/02/20 00:12:51;;;;;;;15.45;8.82;;;6.00;99.90;;;;;;5048035;28;20073;-76
2023/02/20 00:15:18;;;;;;;14.40;9.13;;;6.10;99.90;;;;;;5010165;28;20049;-76
2023/02/20 00:17:46;;;;;;;12.23;8.52;;;6.00;99.90;;;;;;5025716;28;20033;-76
2023/02/20 00:20:18;;;;;;;14.02;8.32;;;5.90;99.90;;;;;;5017975;28;20441;-76
2023/02/20 00:22:44;;;;;;;16.02;9.50;;;6.30;99.90;;;;;;5028573;28;20268;-76
2023/02/20 00:25:09;;;;;;;13.80;7.90;;;6.00;99.90;;;;;;5039576;28;20052;-75
2023/02/20 00:27:35;;;;;;;14.77;7.75;;;5.90;99.90;;;;;;5021407;28;20048;-75
2023/02/20 00:30:01;;;;;;;13.93;8.05;;;5.90;99.90;;;;;;5044242;28;20373;-76
2023/02/20 00:32:26;;;;;;;13.45;7.75;;;5.90;99.90;;;;;;5048731;28;20049;-75
2023/02/20 00:34:52;;;;;;;13.13;7.85;;;5.90;99.90;;;;;;5010461;28;20069;-75
2023/02/20 00:37:18;;;;;;;12.18;7.82;;;5.90;99.90;;;;;;5004020;28;20044;-76
2023/02/20 00:39:44;;;;;;;12.77;7.63;;;5.90;99.90;;;;;;5045764;28;20033;-76
2023/02/20 00:42:10;;;;;;;15.88;7.70;;;5.90;99.90;;;;;;5001674;28;20044;-76
2023/02/20 00:44:35;;;;;;;12.80;7.97;;;5.90;99.90;;;;;;5012791;28;20041;-76
2023/02/20 00:47:01;;;;;;;12.43;7.80;;;5.90;99.90;;;;;;5047972;28;20037;-76
2023/02/20 00:49:27;;;;;;;16.80;7.90;;;5.90;99.90;;;;;;5031217;28;20037;-76
2023/02/20 00:51:53;;;;;;;12.60;6.80;;;5.90;99.90;;;;;;5025871;28;20080;-76
2023/02/20 00:54:18;;;;;;;11.10;7.25;;;6.20;99.90;;;;;;5028817;28;20603;-76
2023/02/20 00:56:44;;;;;;;14.50;8.02;;;6.00;99.90;;;;;;5022640;28;20041;-75
2023/02/20 00:59:10;;;;;;;19.20;8.18;;;6.10;99.90;;;;;;5016179;28;20041;-75
2023/02/20 01:01:36;;;;;;;14.38;7.22;;;6.00;99.90;;;;;;5020993;28;20048;-75
2023/02/20 01:04:02;;;;;;;13.20;8.07;;;6.20;99.90;;;;;;5019256;28;20064;-75
2023/02/20 01:06:27;;;;;;;14.02;7.90;;;6.20;99.90;;;;;;5015067;28;20045;-75
2023/02/20 01:08:53;;;;;;;13.50;7.82;;;6.20;99.90;;;;;;5015314;28;20041;-76
2023/02/20 01:11:18;;;;;;;16.70;8.38;;;6.30;99.90;;;;;;5023612;28;20120;-76
2023/02/20 01:13:44;;;;;;;15.18;8.38;;;6.30;99.90;;;;;;5034081;28;20041;-76
2023/02/20 01:16:10;;;;;;;14.30;7.97;;;7.00;99.90;;;;;;5025621;28;20049;-76
2023/02/20 01:18:35;;;;;;;16.55;8.15;;;6.40;99.90;;;;;;5001721;28;20117;-76
2023/02/20 01:21:01;;;;;;;15.02;7.90;;;6.40;99.90;;;;;;5025742;28;20034;-76
2023/02/20 01:23:27;;;;;;;14.88;8.48;;;6.50;99.90;;;;;;5031443;28;20045;-76
2023/02/20 01:25:52;;;;;;;15.60;8.82;;;6.50;99.90;;;;;;5024489;28;20037;-76
2023/02/20 01:28:18;;;;;;;15.52;8.52;;;6.50;99.90;;;;;;5028753;28;20397;-76
2023/02/20 01:30:43;;;;;;;15.63;8.45;;;6.50;99.90;;;;;;5013753;28;20070;-76
2023/02/20 01:33:09;;;;;;;16.92;8.52;;;6.40;99.90;;;;;;5024501;28;20041;-76
2023/02/20 01:35:35;;;;;;;16.95;9.18;;;6.50;99.90;;;;;;5046051;28;20046;-76
2023/02/20 01:38:05;;;;;;;17.65;9.23;;;6.50;99.90;;;;;;5025372;28;20127;-76
2023/02/20 01:40:31;;;;;;;14.50;7.35;;;6.80;99.90;;;;;;5023610;28;20044;-76
2023/02/20 01:42:57;;;;;;;16.58;8.43;;;6.50;99.90;;;;;;5019033;28;20059;-76
2023/02/20 01:45:22;;;;;;;15.40;8.07;;;6.50;99.90;;;;;;5033664;28;20037;-76
2023/02/20 01:47:50;;;;;;;16.85;8.73;;;6.60;99.90;;;;;;5024602;28;20045;-76
2023/02/20 01:50:19;;;;;;;20.00;8.77;;;6.60;99.90;;;;;;5030236;28;20048;-76
2023/02/20 01:52:51;;;;;;;18.92;9.05;;;6.60;99.90;;;;;;5037238;28;20119;-76
2023/02/20 01:55:20;;;;;;;;;;;6.60;99.90;;;;;;5022930;28;20045;-76
2023/02/20 01:57:52;;;;;;;19.08;9.27;;;6.60;99.90;;;;;;5025392;28;20396;-76
2023/02/20 02:00:23;;;;;;;16.85;8.63;;;6.60;99.90;;;;;;5031056;28;20049;-76
2023/02/20 02:02:54;;;;;;;17.98;9.15;;;6.70;99.90;;;;;;5029072;28;20311;-76
2023/02/20 02:05:21;;;;;;;19.45;9.23;;;6.80;99.90;;;;;;5014427;28;20500;-76
2023/02/20 02:07:47;;;;;;;15.00;9.32;;;6.80;99.90;;;;;;5005772;28;20055;-76
2023/02/20 02:10:21;;;;;;;21.42;9.73;;;6.70;99.90;;;;;;5046310;28;20111;-76
2023/02/20 02:12:50;;;;;;;15.30;9.15;;;6.70;99.90;;;;;;5024927;28;20563;-76
2023/02/20 02:15:18;;;;;;;19.60;9.57;;;6.70;99.90;;;;;;5016074;28;20505;-76
2023/02/20 02:17:55;;;;;;;20.73;9.98;;;6.70;99.90;;;;;;5022026;28;20069;-76
2023/02/20 02:20:33;;;;;;;19.05;9.75;;;6.70;99.90;;;;;;5023837;28;20121;-76
2023/02/20 02:23:32;;;;;;;20.77;10.02;;;6.70;99.90;;;;;;5027745;28;20087;-76
2023/02/20 02:26:01;;;;;;;16.35;9.50;;;6.70;99.90;;;;;;5018790;28;20102;-76
2023/02/20 02:28:36;;;;;;;18.95;9.23;;;6.70;99.90;;;;;;5023540;28;20132;-76
2023/02/20 02:31:04;;;;;;;19.38;10.15;;;6.70;99.90;;;;;;5027581;28;20524;-76
2023/02/20 02:34:07;;;;;;;17.90;9.80;;;6.90;99.90;;;;;;5030372;28;20084;-76
2023/02/20 02:36:36;;;;;;;;;;;6.70;99.90;;;;;;5023328;28;20052;-76
2023/02/20 02:39:07;;;;;;;18.65;10.45;;;6.70;99.90;;;;;;5008322;28;19917;-75
2023/02/20 02:41:38;;;;;;;21.75;10.05;;;6.80;99.90;;;;;;5029940;28;20045;-75
2023/02/20 02:44:16;;;;;;;17.60;10.93;;;6.70;99.90;;;;;;5003519;28;20041;-75
2023/02/20 02:46:59;;;;;;;19.13;11.20;;;6.80;99.90;;;;;;5017791;28;20053;-76
2023/02/20 02:49:53;;;;;;;24.17;11.52;;;6.70;99.90;;;;;;5021948;28;20055;-76
2023/02/20 02:52:37;;;;;;;19.73;10.15;;;6.70;99.90;;;;;;5030632;28;20041;-76
2023/02/20 02:55:04;;;;;;;21.80;11.45;;;6.80;99.90;;;;;;5029609;28;20500;-76
2023/02/20 02:57:29;;;;;;;22.10;11.05;;;6.80;99.90;;;;;;5019025;28;20045;-76
2023/02/20 03:00:08;;;;;;;22.83;11.07;;;6.80;99.90;;;;;;5020704;28;20498;-76
2023/02/20 03:02:43;;;;;;;22.85;11.13;;;7.00;99.90;;;;;;5020126;28;20413;-76
2023/02/20 03:05:12;;;;;;;25.15;11.93;;;6.80;99.90;;;;;;5029676;28;20045;-78
2023/02/20 03:07:39;;;;;;;19.60;11.00;;;6.80;99.90;;;;;;5012323;28;20049;-76
2023/02/20 03:10:08;;;;;;;19.98;11.27;;;6.80;99.90;;;;;;5022856;28;20041;-76
2023/02/20 03:12:37;;;;;;;22.23;10.90;;;6.80;99.90;;;;;;5025496;28;20063;-76
2023/02/20 03:15:35;;;;;;;23.48;11.35;;;6.80;99.90;;;;;;5022861;28;20030;-76
2023/02/20 03:18:09;;;;;;;24.73;11.70;;;6.80;99.90;;;;;;5030465;28;20041;-76
2023/02/20 03:20:40;;;;;;;25.27;11.88;;;6.80;99.90;;;;;;5032064;28;20389;-76
2023/02/20 03:23:08;;;;;;;21.80;11.40;;;6.80;99.90;;;;;;5026747;28;20060;-76
2023/02/20 03:25:44;;;;;;;23.15;12.45;;;6.80;99.90;;;;;;4999722;28;20037;-76
2023/02/20 03:28:21;;;;;;;26.50;12.20;;;6.80;99.90;;;;;;5035035;28;20052;-76
2023/02/20 03:30:58;;;;;;;25.67;11.80;;;6.70;99.90;;;;;;5024361;28;20045;-76
2023/02/20 03:44:43;;;;;;;27.15;13.98;;;6.80;99.90;;;;;;5019765;28;20060;-76
2023/02/20 03:47:13;;;;;;;31.25;16.45;;;6.80;99.90;;;;;;5018583;28;20121;-76
2023/02/20 03:49:41;;;;;;;30.27;15.95;;;6.80;99.90;;;;;;5027340;28;20106;-76
2023/02/20 03:52:08;;;;;;;28.23;15.75;;;7.90;99.90;;;;;;5034941;28;20049;-77
2023/02/20 03:54:35;;;;;;;31.13;16.58;;;6.80;99.90;;;;;;5029763;28;20052;-77
2023/02/20 03:57:11;;;;;;;29.50;16.33;;;6.80;99.90;;;;;;5024658;28;20108;-76
2023/02/20 03:59:42;;;;;;;34.55;16.13;;;6.80;99.90;;;;;;5031492;28;20037;-76
2023/02/20 04:02:27;;;;;;;32.95;17.38;;;6.80;99.90;;;;;;5046148;28;20115;-77
2023/02/20 04:04:58;;;;;;;34.20;18.85;;;7.00;99.90;;;;;;5021947;28;20051;-76
2023/02/20 04:07:30;;;;;;;33.83;18.10;;;6.80;99.90;;;;;;5021021;28;20045;-77
2023/02/20 04:10:01;;;;;;;38.78;18.98;;;6.80;99.90;;;;;;5032589;28;20045;-77
2023/02/20 04:12:31;;;;;;;32.95;18.50;;;6.80;99.90;;;;;;5038862;28;20045;-76
2023/02/20 04:14:58;;;;;;;36.53;20.15;;;6.80;99.90;;;;;;5022453;28;20065;-77
2023/02/20 04:17:30;;;;;;;41.97;20.17;;;6.80;99.90;;;;;;5042695;28;20130;-76
2023/02/20 04:19:56;;;;;;;37.97;20.30;;;6.80;99.90;;;;;;5020476;28;20099;-76
2023/02/20 04:22:28;;;;;;;44.25;22.17;;;6.90;99.90;;;;;;5042128;28;20045;-76
2023/02/20 04:24:59;;;;;;;;;;;6.90;99.90;;;;;;5035213;28;20044;-77
2023/02/20 04:27:25;;;;;;;44.85;20.90;;;7.00;99.90;;;;;;5030172;28;19917;-76
2023/02/20 04:29:50;;;;;;;39.30;21.65;;;7.00;99.90;;;;;;5044451;28;20037;-76
2023/02/20 04:32:16;;;;;;;48.13;22.25;;;7.00;99.90;;;;;;5023029;28;20418;-76
2023/02/20 04:34:42;;;;;;;43.00;21.55;;;7.00;99.90;;;;;;5039444;28;20397;-76
2023/02/20 04:37:10;;;;;;;43.50;21.58;;;7.00;99.90;;;;;;5026884;28;20504;-76
2023/02/20 04:39:36;;;;;;;45.63;21.70;;;7.00;99.90;;;;;;5029101;28;20489;-76
2023/02/20 04:42:02;;;;;;;39.25;21.00;;;7.30;99.90;;;;;;5034023;28;20048;-76
2023/02/20 04:44:30;;;;;;;47.67;23.48;;;7.10;99.90;;;;;;5027878;28;20048;-77
2023/02/20 04:47:00;;;;;;;48.95;21.80;;;7.20;99.90;;;;;;5027224;28;20046;-76
2023/02/20 04:49:26;;;;;;;46.28;22.83;;;7.20;99.90;;;;;;5026932;28;20041;-76
2023/02/20 04:51:52;;;;;;;51.75;24.52;;;7.20;99.90;;;;;;5034165;28;20065;-77
2023/02/20 04:54:17;;;;;;;46.20;21.77;;;7.20;99.90;;;;;;5040616;28;20400;-76
2023/02/20 04:56:43;;;;;;;45.00;22.35;;;7.20;99.90;;;;;;5034589;28;20033;-76
2023/02/20 04:59:09;;;;;;;47.67;22.80;;;7.20;99.90;;;;;;5027615;28;20029;-76
2023/02/20 05:01:34;;;;;;;46.75;23.52;;;7.30;99.90;;;;;;5028870;28;20045;-76
2023/02/20 05:04:00;;;;;;;42.13;21.17;;;7.30;99.90;;;;;;4999662;28;20047;-76
2023/02/20 05:06:26;;;;;;;41.25;21.42;;;7.40;99.90;;;;;;5029766;28;20045;-76
2023/02/20 05:08:51;;;;;;;47.70;23.52;;;7.40;99.90;;;;;;5029449;28;20123;-77
2023/02/20 05:11:17;;;;;;;48.92;21.92;;;7.40;99.90;;;;;;5026171;28;20045;-77
2023/02/20 05:13:43;;;;;;;42.70;22.30;;;7.50;99.90;;;;;;5033767;28;20123;-77
2023/02/20 05:16:09;;;;;;;47.58;22.85;;;7.50;99.90;;;;;;5021890;28;20398;-78
2023/02/20 05:18:34;;;;;;;46.13;22.45;;;7.50;99.90;;;;;;5021109;28;20059;-78
2023/02/20 05:23:47;;;;;;;49.97;23.65;;;7.50;99.90;;;;;;5020196;28;20045;-79
2023/02/20 05:26:18;;;;;;;41.22;21.67;;;7.50;99.90;;;;;;5022654;28;20125;-79
2023/02/20 05:28:44;;;;;;;44.22;21.52;;;7.60;99.90;;;;;;5028973;28;20044;-79
2023/02/20 05:31:11;;;;;;;44.83;21.90;;;7.60;99.90;;;;;;5018782;28;20076;-79
2023/02/20 05:33:38;;;;;;;47.53;22.45;;;7.70;99.90;;;;;;5027935;28;20083;-79
2023/02/20 05:36:05;;;;;;;45.45;21.50;;;7.50;99.90;;;;;;5020527;28;20064;-79
2023/02/20 05:38:33;;;;;;;50.92;22.48;;;7.60;99.90;;;;;;5019310;28;20037;-79
2023/02/20 05:40:58;;;;;;;47.45;22.65;;;7.60;99.90;;;;;;5014797;28;20056;-79
2023/02/20 05:43:24;;;;;;;46.50;22.00;;;7.60;99.90;;;;;;5029896;28;20091;-79
2023/02/20 05:45:49;;;;;;;52.42;22.33;;;7.60;99.90;;;;;;5025408;28;20044;-80
2023/02/20 05:48:15;;;;;;;46.47;22.55;;;7.70;99.90;;;;;;5005625;28;20029;-80
2023/02/20 05:50:41;;;;;;;48.08;23.02;;;7.60;99.90;;;;;;5032653;28;20443;-80
2023/02/20 05:53:07;;;;;;;41.97;21.98;;;7.60;99.90;;;;;;5032884;28;20087;-80
2023/02/20 05:55:32;;;;;;;53.20;23.58;;;7.60;99.90;;;;;;5010875;28;20082;-79
2023/02/20 05:57:58;;;;;;;43.95;21.48;;;7.60;99.90;;;;;;5026151;28;20038;-77
2023/02/20 06:00:24;;;;;;;39.63;21.77;;;7.70;99.90;;;;;;5022142;28;20045;-78
2023/02/20 06:02:50;;;;;;;39.63;20.38;;;7.80;99.90;;;;;;5032683;28;20047;-81
2023/02/20 06:05:16;;;;;;;36.70;20.05;;;7.80;99.90;;;;;;5025589;28;20037;-79
2023/02/20 06:07:45;;;;;;;40.80;20.25;;;7.70;99.90;;;;;;5026625;28;20099;-77
2023/02/20 06:10:11;;;;;;;40.17;20.30;;;7.80;99.90;;;;;;5034393;28;20061;-77
2023/02/20 06:12:37;;;;;;;43.20;21.30;;;7.70;99.90;;;;;;5025678;28;20130;-78
2023/02/20 06:15:03;;;;;;;41.08;19.85;;;7.80;99.90;;;;;;5026139;28;20437;-78
2023/02/20 06:17:31;;;;;;;41.13;19.45;;;7.80;99.90;;;;;;5027283;28;20037;-78
2023/02/20 06:19:56;;;;;;;37.05;18.27;;;7.90;99.90;;;;;;5031235;28;20041;-78
2023/02/20 06:22:28;;;;;;;38.90;18.45;;;7.90;99.90;;;;;;5025499;28;20075;-78
2023/02/20 06:24:53;;;;;;;37.92;18.10;;;7.90;99.90;;;;;;5048614;28;20041;-77
2023/02/20 06:27:19;;;;;;;39.13;17.08;;;8.00;99.90;;;;;;5041954;28;20049;-77
2023/02/20 06:29:48;;;;;;;43.50;18.50;;;7.90;99.90;;;;;;5045168;28;20044;-77
2023/02/20 06:32:14;;;;;;;35.63;17.00;;;7.90;99.90;;;;;;5029311;28;20051;-78
2023/02/20 06:34:40;;;;;;;39.08;16.73;;;7.90;99.90;;;;;;5050360;28;20033;-78
2023/02/20 06:37:05;;;;;;;29.92;15.38;;;8.00;99.90;;;;;;5040252;28;20036;-78
2023/02/20 06:39:32;;;;;;;32.92;14.98;;;8.00;99.90;;;;;;5044605;28;20068;-77
2023/02/20 06:41:57;;;;;;;28.70;13.68;;;8.00;99.90;;;;;;5046152;28;20040;-78
2023/02/20 06:44:23;;;;;;;31.60;12.75;;;8.00;99.90;;;;;;5041774;28;20036;-78
2023/02/20 06:46:49;;;;;;;29.60;14.27;;;8.10;99.90;;;;;;5041068;28;20045;-77
2023/02/20 06:49:15;;;;;;;29.13;14.05;;;8.10;99.90;;;;;;5035566;28;20600;-77
2023/02/20 06:51:40;;;;;;;29.00;12.63;;;8.10;99.90;;;;;;5025116;28;20045;-78
2023/02/20 06:54:07;;;;;;;27.60;12.70;;;8.40;99.90;;;;;;5064459;28;20037;-78
2023/02/20 06:56:34;;;;;;;26.23;12.68;;;8.10;99.90;;;;;;5043315;28;20465;-77
2023/02/20 06:59:02;;;;;;;27.40;12.73;;;8.10;99.90;;;;;;5041074;28;20493;-77
2023/02/20 07:01:30;;;;;;;24.98;11.93;;;8.10;99.90;;;;;;5025301;28;20067;-77
2023/02/20 07:03:58;;;;;;;32.88;12.07;;;8.30;99.90;;;;;;5031921;28;20037;-77
2023/02/20 07:06:24;;;;;;;32.45;12.63;;;8.20;99.90;;;;;;5039158;28;20049;-77
2023/02/20 07:08:50;;;;;;;28.33;12.77;;;8.10;99.90;;;;;;5040978;28;20042;-77
2023/02/20 07:11:17;;;;;;;26.10;11.55;;;8.10;99.90;;;;;;5052012;28;20071;-77
2023/02/20 07:13:43;;;;;;;21.92;11.45;;;8.20;99.90;;;;;;5031507;28;20501;-74
2023/02/20 07:16:09;;;;;;;24.50;12.00;;;8.20;99.90;;;;;;5050208;28;20037;-75
2023/02/20 07:18:35;;;;;;;27.02;11.23;;;8.20;99.90;;;;;;5020217;28;20041;-74
2023/02/20 07:21:00;;;;;;;32.22;12.07;;;8.20;99.90;;;;;;5015644;28;20033;-75
2023/02/20 07:23:26;;;;;;;23.83;10.85;;;8.30;99.90;;;;;;5036076;28;20389;-74
2023/02/20 07:25:52;;;;;;;28.58;11.73;;;8.20;99.90;;;;;;5020276;28;20083;-75
2023/02/20 07:28:19;;;;;;;28.40;11.95;;;8.20;99.90;;;;;;5036125;28;20083;-74
2023/02/20 07:30:47;;;;;;;24.85;10.95;;;8.30;99.90;;;;;;5028452;28;20082;-74
2023/02/20 07:33:13;;;;;;;26.98;11.88;;;8.20;99.90;;;;;;5032761;28;20045;-74
2023/02/20 07:35:39;;;;;;;27.58;11.20;;;8.30;99.90;;;;;;5033501;28;20033;-75
2023/02/20 07:38:05;;;;;;;24.20;10.98;;;8.20;99.90;;;;;;5032980;28;20477;-74
2023/02/20 07:40:30;;;;;;;29.15;11.50;;;8.30;99.90;;;;;;5051507;28;20033;-74
2023/02/20 07:42:56;;;;;;;26.33;11.05;;;8.30;99.90;;;;;;5031660;28;20072;-74
2023/02/20 07:45:22;;;;;;;25.10;11.05;;;8.40;99.90;;;;;;5050353;28;20098;-75
2023/02/20 07:47:47;;;;;;;33.90;11.15;;;8.30;99.90;;;;;;5033005;28;20037;-74
2023/02/20 07:50:14;;;;;;;28.25;10.82;;;8.40;99.90;;;;;;5030736;28;20033;-76
2023/02/20 07:52:40;;;;;;;24.38;10.57;;;8.40;99.90;;;;;;5033111;28;20444;-75
2023/02/20 07:55:06;;;;;;;19.58;10.60;;;8.40;99.90;;;;;;5031396;28;20037;-75
2023/02/20 07:57:34;;;;;;;21.80;10.40;;;8.40;99.90;;;;;;5029387;28;20407;-75
2023/02/20 07:59:59;;;;;;;24.98;11.00;;;8.40;99.90;;;;;;5025148;28;20045;-75
2023/02/20 08:02:25;;;;;;;26.55;11.30;;;8.40;99.90;;;;;;5021220;28;20397;-74
2023/02/20 08:04:51;;;;;;;22.83;10.45;;;8.50;99.90;;;;;;5005098;28;20037;-75
2023/02/20 08:07:16;;;;;;;24.75;11.40;;;8.70;99.90;;;;;;5022435;28;20473;-76
2023/02/20 08:09:42;;;;;;;25.23;10.48;;;8.50;99.90;;;;;;5016865;28;20045;-74
2023/02/20 08:12:07;;;;;;;27.77;11.50;;;8.50;99.90;;;;;;5018687;28;20037;-75
2023/02/20 08:14:33;;;;;;;26.42;11.43;;;8.50;99.90;;;;;;5025695;28;20029;-75
2023/02/20 08:16:59;;;;;;;19.92;9.93;;;8.50;99.90;;;;;;5028534;28;20028;-74
2023/02/20 08:19:24;;;;;;;29.05;11.32;;;8.50;99.90;;;;;;5026340;28;20036;-74
2023/02/20 08:21:50;;;;;;;22.17;10.98;;;8.50;99.90;;;;;;5019388;28;20044;-75
2023/02/20 08:24:15;;;;;;;25.75;10.52;;;8.50;99.90;;;;;;5022780;28;20494;-74
2023/02/20 08:26:47;;;;;;;28.40;11.43;;;8.50;99.90;;;;;;5023776;28;20049;-75
2023/02/20 08:29:14;;;;;;;26.25;11.07;;;8.50;99.90;;;;;;5027302;28;20059;-75
2023/02/20 08:31:39;;;;;;;23.40;9.63;;;8.50;99.90;;;;;;5027663;28;20114;-75
2023/02/20 08:34:05;;;;;;;22.55;10.10;;;8.50;99.90;;;;;;5025589;28;20428;-75
2023/02/20 08:36:30;;;;;;;19.33;10.48;;;8.50;99.90;;;;;;5024716;28;20479;-74
2023/02/20 08:38:57;;;;;;;23.42;10.30;;;8.50;99.90;;;;;;5037719;28;20361;-75
2023/02/20 08:41:22;;;;;;;21.40;10.75;;;8.50;99.90;;;;;;5025695;28;20665;-75
2023/02/20 08:43:48;;;;;;;22.25;8.65;;;8.50;99.90;;;;;;5022815;28;20044;-75
2023/02/20 08:46:14;;;;;;;19.80;9.27;;;8.50;99.90;;;;;;5022358;28;20124;-75
2023/02/20 08:48:40;;;;;;;21.08;8.88;;;8.60;99.90;;;;;;5023225;28;20607;-75
2023/02/20 08:51:06;;;;;;;27.60;9.07;;;8.80;99.90;;;;;;5020952;28;20047;-75
2023/02/20 08:53:32;;;;;;;24.77;8.43;;;8.60;99.90;;;;;;5044775;28;20037;-75
2023/02/20 08:55:58;;;;;;;20.83;9.13;;;8.60;99.90;;;;;;5018471;28;20042;-76
2023/02/20 08:58:24;;;;;;;22.55;8.77;;;8.90;99.90;;;;;;5019869;28;20033;-75
2023/02/20 09:00:53;;;;;;;21.38;8.65;;;8.60;99.90;;;;;;5016375;28;20116;-75
2023/02/20 09:03:18;;;;;;;19.15;9.30;;;8.60;99.90;;;;;;5026478;28;20037;-74
2023/02/20 09:05:44;;;;;;;21.75;8.88;;;8.70;99.90;;;;;;5018172;28;20049;-75
2023/02/20 09:08:10;;;;;;;19.25;8.35;;;8.60;99.90;;;;;;5012203;28;20060;-75
2023/02/20 09:10:36;;;;;;;20.02;7.90;;;8.70;99.90;;;;;;5035430;28;20032;-75
2023/02/20 09:13:02;;;;;;;20.25;8.15;;;8.70;99.90;;;;;;5025981;28;20044;-74
2023/02/20 09:15:28;;;;;;;21.77;8.23;;;8.70;99.90;;;;;;5021916;28;20032;-75
2023/02/20 09:17:54;;;;;;;16.60;7.78;;;8.70;99.90;;;;;;5020279;28;20088;-75
2023/02/20 09:20:21;;;;;;;22.35;8.15;;;8.70;99.90;;;;;;5023331;28;20084;-74
2023/02/20 09:22:49;;;;;;;20.92;8.50;;;8.90;99.90;;;;;;5013093;28;20073;-75
2023/02/20 09:25:16;;;;;;;21.48;8.25;;;8.70;99.90;;;;;;5035518;28;20144;-76
2023/02/20 09:27:42;;;;;;;17.20;7.57;;;8.70;99.90;;;;;;5016389;28;20076;-75
2023/02/20 09:30:08;;;;;;;18.13;8.07;;;8.70;99.90;;;;;;5027463;28;20493;-73
2023/02/20 09:32:34;;;;;;;18.05;7.47;;;8.80;99.90;;;;;;5026584;28;20037;-74
2023/02/20 09:34:59;;;;;;;20.58;8.55;;;8.80;99.90;;;;;;5023129;28;20550;-75
2023/02/20 09:37:25;;;;;;;18.50;7.25;;;8.90;99.90;;;;;;5016290;28;20409;-75
2023/02/20 09:39:50;;;;;;;22.40;8.85;;;8.90;99.90;;;;;;5025500;28;20120;-74
2023/02/20 09:42:35;;;;;;;18.67;7.50;;;8.80;99.90;;;;;;5040465;28;20052;-75
2023/02/20 09:45:23;;;;;;;17.25;7.82;;;9.20;99.90;;;;;;5026116;28;20037;-75
2023/02/20 09:47:49;;;;;;;17.90;7.72;;;9.20;99.90;;;;;;5021506;28;20152;-75
2023/02/20 09:50:55;;;;;;;20.73;8.27;;;9.00;99.90;;;;;;5026781;28;20136;-76
2023/02/20 09:53:50;;;;;;;20.95;8.30;;;8.90;99.90;;;;;;4986540;28;20064;-76
2023/02/20 09:56:20;;;;;;;18.38;7.40;;;8.90;99.90;;;;;;4945852;28;20046;-75
2023/02/20 09:59:02;;;;;;;24.20;8.18;;;9.00;99.90;;;;;;4999784;28;20049;-75
2023/02/20 10:01:29;;;;;;;17.42;7.45;;;9.00;99.90;;;;;;5017529;28;20049;-75
2023/02/20 10:04:22;;;;;;;18.98;7.82;;;9.00;99.90;;;;;;5021292;28;20036;-74
2023/02/20 10:06:52;;;;;;;16.45;7.50;;;9.00;99.90;;;;;;5014514;28;20479;-75
2023/02/20 10:09:18;;;;;;;17.30;6.95;;;9.00;99.90;;;;;;5010959;28;20120;-75
2023/02/20 10:11:59;;;;;;;17.48;7.82;;;9.10;99.90;;;;;;5026726;28;20124;-74
2023/02/20 10:14:36;;;;;;;17.65;7.22;;;9.10;99.90;;;;;;5014448;28;20041;-76
2023/02/20 10:17:42;;;;;;;17.17;7.07;;;9.20;99.90;;;;;;5019958;28;20041;-76
2023/02/20 10:20:25;;;;;;;17.13;6.88;;;9.10;99.90;;;;;;5017502;28;20064;-73
2023/02/20 10:23:15;;;;;;;15.65;7.15;;;9.10;99.90;;;;;;5009332;28;20052;-74
2023/02/20 10:25:46;;;;;;;17.55;7.63;;;9.20;99.90;;;;;;5009964;28;20121;-75
2023/02/20 10:28:17;;;;;;;17.55;6.60;;;9.20;99.90;;;;;;5007092;28;20091;-74
2023/02/20 10:30:48;;;;;;;17.13;6.82;;;9.70;99.90;;;;;;5024316;28;20083;-75
2023/02/20 10:33:42;;;;;;;19.70;6.85;;;9.20;99.90;;;;;;5018676;28;20600;-75
2023/02/20 10:36:11;;;;;;;15.00;7.03;;;9.20;99.90;;;;;;5009853;28;20064;-74
2023/02/20 10:38:45;;;;;;;19.80;7.00;;;9.20;99.90;;;;;;5018205;28;20056;-75
2023/02/20 10:41:20;;;;;;;19.40;6.72;;;9.20;99.90;;;;;;5016845;28;20436;-75
2023/02/20 10:44:04;;;;;;;20.30;7.07;;;9.20;99.90;;;;;;5017653;28;20092;-75
2023/02/20 10:47:20;;;;;;;17.05;7.45;;;9.20;99.90;;;;;;5015786;28;20572;-75
2023/02/20 10:50:19;;;;;;;18.02;6.95;;;9.20;99.90;;;;;;4945751;28;20046;-74
2023/02/20 10:53:01;;;;;;;15.20;6.93;;;9.20;99.90;;;;;;5014540;28;20615;-75
2023/02/20 10:55:38;;;;;;;19.50;7.15;;;9.20;99.90;;;;;;5019128;28;20049;-75
2023/02/20 10:58:07;;;;;;;14.63;6.70;;;9.20;99.90;;;;;;5017347;28;20042;-74
2023/02/20 11:00:38;;;;;;;15.13;6.07;;;9.20;99.90;;;;;;5023920;28;20041;-75
2023/02/20 11:03:30;;;;;;;14.70;6.70;;;9.30;99.90;;;;;;4997721;28;20052;-74
2023/02/20 11:05:59;;;;;;;18.02;6.82;;;9.30;99.90;;;;;;4963208;28;20485;-75
2023/02/20 11:08:25;;;;;;;17.58;6.78;;;9.30;99.90;;;;;;5015910;28;20711;-74
2023/02/20 11:10:59;;;;;;;16.95;6.72;;;9.30;99.90;;;;;;5025772;28;20055;-75
2023/02/20 11:13:25;;;;;;;17.95;7.40;;;9.30;99.90;;;;;;5021800;28;20040;-74
2023/02/20 11:15:57;;;;;;;15.40;6.55;;;9.30;99.90;;;;;;5004318;28;20037;-75
2023/02/20 11:18:37;;;;;;;12.32;6.18;;;9.30;99.90;;;;;;5019987;28;20115;-74
2023/02/20 11:21:03;;;;;;;13.90;6.05;;;9.40;99.90;;;;;;5024480;28;20029;-74
2023/02/20 11:23:41;;;;;;;14.88;5.78;;;9.40;99.90;;;;;;5013629;28;20068;-77
2023/02/20 11:26:19;;;;;;;18.70;6.05;;;9.50;99.90;;;;;;5017698;28;20050;-75
2023/02/20 11:28:53;;;;;;;11.57;5.60;;;9.50;99.90;;;;;;5012285;28;20265;-75
2023/02/20 11:31:21;;;;;;;17.40;5.65;;;9.50;99.90;;;;;;5022939;28;20041;-75
2023/02/20 11:33:49;;;;;;;15.75;5.90;;;9.50;99.90;;;;;;5024831;28;20504;-76
2023/02/20 11:36:16;;;;;;;13.90;6.18;;;9.60;99.90;;;;;;5022391;28;20068;-75
2023/02/20 11:38:42;;;;;;;15.88;6.05;;;9.50;99.90;;;;;;5004085;28;20378;-76
2023/02/20 11:41:26;;;;;;;13.88;5.55;;;9.60;99.90;;;;;;5021071;28;20037;-76
2023/02/20 11:44:13;;;;;;;13.70;5.47;;;9.60;99.90;;;;;;5018323;28;20068;-75
2023/02/20 11:46:39;;;;;;;14.52;5.10;;;9.60;99.90;;;;;;5019288;28;20037;-75
2023/02/20 11:49:30;;;;;;;14.35;5.47;;;9.60;99.90;;;;;;5040097;28;20037;-74
2023/02/20 11:52:08;;;;;;;13.27;5.40;;;9.60;99.90;;;;;;5022130;28;20050;-75
2023/02/20 11:54:34;;;;;;;11.90;5.05;;;9.70;99.90;;;;;;5027241;28;20041;-75
2023/02/20 11:57:01;;;;;;;13.70;6.22;;;9.70;99.90;;;;;;5014122;28;20037;-75
2023/02/20 11:59:39;;;;;;;14.63;5.97;;;9.70;99.90;;;;;;5012154;28;20391;-76
2023/02/20 12:02:17;;;;;;;12.07;6.18;;;9.70;99.90;;;;;;5016791;28;20112;-76
2023/02/20 12:04:58;;;;;;;15.10;5.82;;;9.70;99.90;;;;;;4997347;28;20510;-75
2023/02/20 12:07:33;;;;;;;14.73;5.97;;;9.70;99.90;;;;;;5026006;28;20045;-75
2023/02/20 12:10:24;;;;;;;15.45;5.82;;;9.60;99.90;;;;;;5019069;28;20044;-76
2023/02/20 12:12:50;;;;;;;14.07;5.20;;;9.70;99.90;;;;;;5014806;28;20041;-76
2023/02/20 12:15:18;;;;;;;16.90;5.40;;;9.70;99.90;;;;;;5020928;28;20116;-75
2023/02/20 12:17:44;;;;;;;18.08;6.20;;;9.70;99.90;;;;;;5025922;28;20064;-76
2023/02/20 12:20:16;;;;;;;16.17;5.70;;;10.00;99.90;;;;;;5019580;28;20045;-76
2023/02/20 12:23:01;;;;;;;13.97;5.63;;;9.60;99.90;;;;;;5016624;28;20045;-76
2023/02/20 12:25:35;;;;;;;16.33;5.47;;;9.60;99.90;;;;;;5014771;28;20053;-76
2023/02/20 12:28:16;;;;;;;12.75;5.85;;;9.70;99.90;;;;;;5022199;28;20037;-74
2023/02/20 12:31:20;;;;;;;20.05;6.75;;;9.70;99.90;;;;;;5026354;28;20053;-75
2023/02/20 12:33:51;;;;;;;16.58;5.75;;;9.60;99.90;;;;;;5024563;28;20420;-73
2023/02/20 12:37:12;;;;;;;14.38;5.57;;;9.70;99.90;;;;;;5025025;28;20069;-75
2023/02/20 12:39:46;;;;;;;16.98;5.95;;;9.70;99.90;;;;;;5006404;28;20053;-75
2023/02/20 12:42:21;;;;;;;14.63;5.80;;;9.70;99.90;;;;;;5021044;28;20094;-76
2023/02/20 12:45:04;;;;;;;12.20;5.72;;;9.70;99.90;;;;;;5020877;28;20067;-76
2023/02/20 12:47:42;;;;;;;14.82;5.13;;;9.70;99.90;;;;;;5019836;28;20174;-74
2023/02/20 12:50:17;;;;;;;12.45;5.40;;;9.70;99.90;;;;;;5022906;28;20114;-76
2023/02/20 12:53:04;;;;;;;18.73;6.68;;;9.70;99.90;;;;;;5015229;28;20046;-76
2023/02/20 12:55:43;;;;;;;15.15;5.68;;;9.70;99.90;;;;;;5018073;28;20051;-74
2023/02/20 12:58:27;;;;;;;13.80;4.88;;;9.70;99.90;;;;;;5017825;28;20041;-75
2023/02/20 13:00:59;;;;;;;16.48;6.40;;;9.70;99.90;;;;;;5020151;28;20683;-74
2023/02/20 13:03:59;;;;;;;14.90;5.72;;;9.70;99.90;;;;;;5040059;28;20044;-76
2023/02/20 13:06:31;;;;;;;14.75;6.18;;;9.70;99.90;;;;;;5019948;28;20140;-76
2023/02/20 13:09:06;;;;;;;;;;;9.60;99.90;;;;;;5021048;28;20069;-76
2023/02/20 13:11:42;;;;;;;16.08;5.75;;;9.70;99.90;;;;;;5024095;28;19928;-76
2023/02/20 13:14:14;;;;;;;14.00;6.10;;;9.70;99.90;;;;;;5019781;28;20037;-76